Baruunturuun, Mongolia
Current Conditions -  °F | °C
As of 12:00 PM on Friday 31 Oct 2014 (Local Time) from UNAA Reporting Station
Broken Clouds Broken Clouds  
Wind Chill: 25°   Ceiling: 7600
Heat Index: 36°   Visibility: 6mi
Dew Point: 25°   Wind: 18mph
Humidity: 65%   Direction: 220°SW
Pressure: 30.24"   Gusts: NA
Location:  49.66°N, 94.39°E
Report Text: UNAA 310400Z 22008MPS 9999 SCT030CB BKN076 02/M04 Q1024 NOSIGRMK QFE745 20190055
Loading
Personal Weather Stations






























Interactive Weather Map
Tropical Storm Tracking
New forecast layout! Learn more

10-Day Weather Forecast

Advertisements
Track Severe Weather on mobile